Terminal Aerodrome Forecast
Issued by NWS

Home | Current Version | Previous Version | Text Only | Print | Product List | Glossary On
Versions: 1 2 3 4 5 6 7 8 9 10 11 12 13 14 15 16 17 18 19
000
FTUS44 KMAF 211100
TAFFST
TAF
KFST 211127Z 2112/2212 14008KT P6SM SCT025 BKN050
      TEMPO 2113/2117 4SM SHRA BR OVC025
     FM211700 10009KT P6SM OVC030
      TEMPO 2117/2121 4SM TSRA BR OVC025CB
     FM212100 12010KT P6SM BKN040
      TEMPO 2121/2124 4SM TSRA BR OVC025CB=

USA.gov is the U.S. government's official web portal to all federal, state and local government web resources and services.